Time;durP1;ratioP1;P1;durP2;ratioP2;P2;SDS_P1;SDS_P2;PMS_P1;PMS_P2;Temp;Humidity;BMP_temperature;BMP_pressure;BME280_temperature;BME280_humidity;BME280_pressure;Samples;Min_cycle;Max_cycle;Signal;HPM_P1;HPM_P2
2021/06/24 00:01:26;;;;;;;36.47;14.20;;;640.50;2432.00;;;;;;5032126;28;20030;-83
2021/06/24 00:03:52;;;;;;;26.02;12.20;;;640.40;2432.00;;;;;;5052892;28;20073;-84
2021/06/24 00:06:17;;;;;;;37.78;13.38;;;640.40;2432.00;;;;;;5036492;28;20044;-84
2021/06/24 00:08:43;;;;;;;33.42;12.77;;;640.30;2432.00;;;;;;5037380;28;20085;-84
2021/06/24 00:11:10;;;;;;;32.90;11.73;;;640.30;2432.00;;;;;;5037537;28;20009;-83
2021/06/24 00:13:37;;;;;;;32.28;13.70;;;640.20;2432.00;;;;;;5037556;28;20048;-84
2021/06/24 00:16:04;;;;;;;32.38;13.68;;;640.30;2432.00;;;;;;5053907;28;20017;-83
2021/06/24 00:18:30;;;;;;;27.27;13.82;;;640.20;2432.00;;;;;;5033572;28;20029;-83
2021/06/24 00:20:56;;;;;;;26.35;13.25;;;640.20;2432.00;;;;;;5038003;28;20108;-83
2021/06/24 00:23:23;;;;;;;34.50;14.02;;;640.20;2432.00;;;;;;5038016;28;20390;-84
2021/06/24 00:25:50;;;;;;;29.08;13.05;;;640.10;2432.00;;;;;;5036658;28;20093;-83
2021/06/24 00:28:17;;;;;;;33.75;14.55;;;640.10;2432.00;;;;;;5027564;28;20032;-85
2021/06/24 00:30:48;;;;;;;31.27;13.50;;;640.10;2432.00;;;;;;5020501;28;20021;-84
2021/06/24 00:33:15;;;;;;;34.08;15.05;;;640.10;2432.00;;;;;;5021589;28;20025;-84
2021/06/24 00:35:41;;;;;;;32.33;13.07;;;615.20;2432.00;;;;;;5021273;28;20025;-84
2021/06/24 00:38:08;;;;;;;33.97;13.55;;;640.20;2432.00;;;;;;5020757;28;20124;-84
2021/06/24 00:40:36;;;;;;;36.45;13.80;;;640.00;2432.00;;;;;;5023013;28;20052;-84
2021/06/24 00:43:04;;;;;;;32.58;13.85;;;615.20;2432.00;;;;;;5018916;28;20430;-83
2021/06/24 00:45:31;;;;;;;34.80;14.70;;;615.10;2432.00;;;;;;5019392;28;20100;-84
2021/06/24 00:47:57;;;;;;;29.75;14.38;;;615.10;2432.00;;;;;;5020553;28;20075;-83
2021/06/24 00:50:23;;;;;;;36.65;13.93;;;615.10;2432.00;;;;;;5020063;28;20021;-83
2021/06/24 00:52:49;;;;;;;37.03;14.43;;;614.90;2432.00;;;;;;5019653;28;20021;-84
2021/06/24 00:55:15;;;;;;;33.60;14.50;;;614.90;2432.00;;;;;;5018659;28;20029;-83
2021/06/24 00:57:41;;;;;;;32.25;15.07;;;615.00;2432.00;;;;;;5018716;28;20022;-83
2021/06/24 01:00:09;;;;;;;36.00;14.95;;;615.00;2432.00;;;;;;5019165;28;20060;-83
2021/06/24 01:02:38;;;;;;;31.88;14.15;;;615.00;2432.00;;;;;;5019657;28;20085;-83
2021/06/24 01:05:04;;;;;;;32.03;14.55;;;615.00;2432.00;;;;;;5018930;28;20042;-84
2021/06/24 01:07:30;;;;;;;34.72;14.95;;;615.10;2432.00;;;;;;5018716;28;20116;-84
2021/06/24 01:09:57;;;;;;;41.47;17.15;;;615.00;2432.00;;;;;;5019196;28;20057;-83
2021/06/24 01:12:23;;;;;;;28.95;13.18;;;615.00;2432.00;;;;;;5018772;28;20021;-83
2021/06/24 01:14:51;;;;;;;24.45;13.75;;;614.70;2432.00;;;;;;5019479;28;20025;-83
2021/06/24 01:17:16;;;;;;;30.50;13.35;;;615.00;2432.00;;;;;;5019283;28;20021;-83
2021/06/24 01:19:42;;;;;;;29.20;13.68;;;615.00;2432.00;;;;;;5019368;28;20021;-84
2021/06/24 01:22:09;;;;;;;28.05;14.48;;;614.80;2432.00;;;;;;5020539;28;20025;-83
2021/06/24 01:24:35;;;;;;;26.05;13.80;;;614.80;2432.00;;;;;;5021188;28;20021;-83
2021/06/24 01:27:01;;;;;;;51.22;14.20;;;614.90;2432.00;;;;;;5019296;28;20373;-83
2021/06/24 01:29:26;;;;;;;24.77;12.73;;;615.00;2432.00;;;;;;5018754;28;20021;-84
2021/06/24 01:31:52;;;;;;;26.48;12.55;;;615.10;2432.00;;;;;;5018771;28;20017;-83
2021/06/24 01:34:18;;;;;;;33.78;13.75;;;615.00;2432.00;;;;;;5018921;28;20041;-83
2021/06/24 01:36:44;;;;;;;32.85;14.50;;;615.00;2432.00;;;;;;5018353;28;20032;-84
2021/06/24 01:39:13;;;;;;;34.60;14.55;;;614.90;2432.00;;;;;;5018251;28;20376;-82
2021/06/24 01:41:39;;;;;;;31.08;15.15;;;614.90;2432.00;;;;;;5018018;28;20364;-83
2021/06/24 01:44:05;;;;;;;33.50;14.80;;;614.80;2432.00;;;;;;5018146;28;20083;-84
2021/06/24 01:46:31;;;;;;;31.30;16.02;;;614.80;2432.00;;;;;;5018157;28;20022;-84
2021/06/24 01:48:57;;;;;;;30.50;13.85;;;614.70;2432.00;;;;;;5018238;28;20021;-83
2021/06/24 01:51:23;;;;;;;27.70;13.40;;;614.80;2432.00;;;;;;5018167;28;20449;-84
2021/06/24 01:53:50;;;;;;;29.98;13.73;;;615.20;2432.00;;;;;;5017464;28;20034;-83
2021/06/24 01:56:16;;;;;;;29.75;13.13;;;614.50;2432.00;;;;;;5017465;28;20033;-84
2021/06/24 01:58:43;;;;;;;33.95;14.00;;;614.70;2432.00;;;;;;5017880;28;20532;-83
2021/06/24 02:01:09;;;;;;;32.40;14.15;;;614.70;2432.00;;;;;;5017588;28;20049;-84
2021/06/24 02:03:37;;;;;;;30.05;13.93;;;614.50;2432.00;;;;;;5014551;28;20076;-84
2021/06/24 02:06:04;;;;;;;25.27;13.80;;;589.70;2432.00;;;;;;5014911;28;20037;-83
2021/06/24 02:08:31;;;;;;;30.83;14.90;;;589.60;2432.00;;;;;;5014277;28;20072;-83
2021/06/24 02:10:58;;;;;;;25.55;13.10;;;589.70;2432.00;;;;;;5014018;28;20022;-83
2021/06/24 02:13:25;;;;;;;26.27;13.75;;;614.40;2432.00;;;;;;5014490;28;20026;-84
2021/06/24 02:15:51;;;;;;;31.20;13.52;;;614.50;2432.00;;;;;;5014911;28;20080;-84
2021/06/24 02:18:17;;;;;;;27.75;14.68;;;614.50;2432.00;;;;;;5014351;28;20022;-83
2021/06/24 02:20:43;;;;;;;27.33;15.57;;;614.40;2432.00;;;;;;5014484;28;20025;-84
2021/06/24 02:23:09;;;;;;;31.40;15.75;;;614.40;2432.00;;;;;;5013496;28;20033;-84
2021/06/24 02:25:36;;;;;;;26.88;14.38;;;614.40;2432.00;;;;;;5014468;28;20061;-84
2021/06/24 02:28:02;;;;;;;44.05;15.55;;;614.50;2432.00;;;;;;5014316;28;20112;-83
2021/06/24 02:30:29;;;;;;;34.17;14.50;;;614.50;2432.00;;;;;;5014410;28;20450;-84
2021/06/24 02:32:55;;;;;;;34.85;14.10;;;614.40;2432.00;;;;;;5014823;28;20021;-84
2021/06/24 02:35:21;;;;;;;33.17;15.18;;;614.50;2432.00;;;;;;5014175;28;20116;-82
2021/06/24 02:37:48;;;;;;;34.05;14.52;;;589.70;2432.00;;;;;;5014051;28;20030;-84
2021/06/24 02:40:16;;;;;;;33.63;15.02;;;589.70;2432.00;;;;;;5013828;28;20025;-83
2021/06/24 02:42:43;;;;;;;27.25;15.07;;;589.70;2432.00;;;;;;5014159;28;20029;-84
2021/06/24 02:45:10;;;;;;;37.75;14.52;;;589.60;2432.00;;;;;;5014430;28;20076;-84
2021/06/24 02:47:36;;;;;;;35.97;15.20;;;589.60;2432.00;;;;;;5014008;28;20030;-84
2021/06/24 02:50:07;;;;;;;32.00;14.52;;;589.70;2432.00;;;;;;5014413;28;20022;-84
2021/06/24 02:52:33;;;;;;;32.28;14.05;;;589.70;2432.00;;;;;;5013804;28;20018;-84
2021/06/24 02:54:59;;;;;;;32.80;13.75;;;589.70;2432.00;;;;;;5013833;28;20388;-82
2021/06/24 02:57:26;;;;;;;30.75;13.68;;;589.70;2432.00;;;;;;5014219;28;20121;-84
2021/06/24 02:59:52;;;;;;;31.63;13.75;;;589.70;2432.00;;;;;;5015295;28;20018;-84
2021/06/24 03:02:19;;;;;;;29.42;14.43;;;589.60;2432.00;;;;;;5014258;28;20072;-84
2021/06/24 03:04:46;;;;;;;32.92;14.90;;;589.60;2432.00;;;;;;5013425;28;20144;-85
2021/06/24 03:07:11;;;;;;;37.22;14.38;;;588.90;2432.00;;;;;;5013906;28;20021;-85
2021/06/24 03:09:38;;;;;;;34.08;15.07;;;589.50;2432.00;;;;;;5015242;28;20024;-85
2021/06/24 03:12:04;;;;;;;32.25;13.07;;;589.50;2432.00;;;;;;5013919;28;20450;-85
2021/06/24 03:14:30;;;;;;;35.22;14.95;;;588.80;2432.00;;;;;;5013700;28;20041;-85
2021/06/24 03:16:56;;;;;;;35.20;15.70;;;589.50;2432.00;;;;;;5013887;28;20026;-85
2021/06/24 03:19:22;;;;;;;32.28;14.05;;;589.50;2432.00;;;;;;5014214;28;20035;-84
2021/06/24 03:21:48;;;;;;;31.70;15.77;;;589.50;2432.00;;;;;;5013930;28;20029;-85
2021/06/24 03:24:15;;;;;;;37.17;15.48;;;589.60;2432.00;;;;;;5013897;28;20521;-86
2021/06/24 03:26:41;;;;;;;33.35;15.93;;;589.00;2432.00;;;;;;5013657;28;20468;-86
2021/06/24 03:29:07;;;;;;;34.15;14.65;;;589.30;2432.00;;;;;;5013724;28;20036;-85
2021/06/24 03:31:34;;;;;;;35.53;14.65;;;589.50;2432.00;;;;;;5014370;28;20397;-85
2021/06/24 03:34:00;;;;;;;29.55;15.73;;;614.40;2432.00;;;;;;5014108;28;20369;-84
2021/06/24 03:36:26;;;;;;;35.75;15.80;;;589.60;2432.00;;;;;;5017758;28;20033;-83
2021/06/24 03:38:52;;;;;;;35.08;15.02;;;589.40;2432.00;;;;;;5017617;28;20022;-84
2021/06/24 03:41:24;;;;;;;26.75;14.50;;;589.40;2432.00;;;;;;5017506;28;20029;-83
2021/06/24 03:43:54;;;;;;;31.55;15.60;;;589.30;2432.00;;;;;;5017802;28;20034;-84
2021/06/24 03:46:24;;;;;;;26.50;12.88;;;589.50;2432.00;;;;;;5017528;28;20064;-83
2021/06/24 03:48:52;;;;;;;29.33;13.10;;;589.50;2432.00;;;;;;5017845;28;20021;-83
2021/06/24 03:51:18;;;;;;;29.10;14.10;;;589.40;2432.00;;;;;;5017858;28;20120;-83
2021/06/24 03:53:44;;;;;;;32.22;14.98;;;589.20;2432.00;;;;;;5017348;28;20029;-83
2021/06/24 03:56:10;;;;;;;35.42;14.40;;;589.20;2432.00;;;;;;5017326;28;20450;-83
2021/06/24 03:58:36;;;;;;;35.00;14.27;;;589.20;2432.00;;;;;;5017396;28;20030;-83
2021/06/24 04:01:02;;;;;;;31.60;15.18;;;589.30;2432.00;;;;;;5017077;28;20454;-83
2021/06/24 04:03:28;;;;;;;28.27;14.25;;;589.30;2432.00;;;;;;5019788;28;20053;-84
2021/06/24 04:05:54;;;;;;;38.55;14.30;;;589.50;2432.00;;;;;;5020680;28;20029;-83
2021/06/24 04:08:20;;;;;;;34.03;14.65;;;589.50;2432.00;;;;;;5020173;28;20392;-84
2021/06/24 04:10:46;;;;;;;34.53;15.05;;;589.40;2432.00;;;;;;5020675;28;20025;-85
2021/06/24 04:13:12;;;;;;;34.22;13.45;;;589.20;2432.00;;;;;;5020682;28;20021;-84
2021/06/24 04:15:38;;;;;;;35.50;15.15;;;589.20;2432.00;;;;;;5020054;28;20099;-83
2021/06/24 04:18:06;;;;;;;30.52;14.35;;;589.10;2432.00;;;;;;5020418;28;20053;-83
2021/06/24 04:20:32;;;;;;;29.25;14.27;;;589.10;2432.00;;;;;;5020603;28;20025;-84
2021/06/24 04:22:58;;;;;;;37.25;15.65;;;589.10;2432.00;;;;;;5020730;28;20112;-85
2021/06/24 04:25:25;;;;;;;33.92;14.25;;;589.20;2432.00;;;;;;5020449;28;20025;-85
2021/06/24 04:27:51;;;;;;;32.13;14.15;;;589.30;2432.00;;;;;;5020069;28;20021;-84
2021/06/24 04:30:18;;;;;;;30.90;14.90;;;589.50;2432.00;;;;;;5019970;28;20449;-84
2021/06/24 04:32:44;;;;;;;30.75;14.73;;;589.60;2432.00;;;;;;5020317;28;20021;-84
2021/06/24 04:35:11;;;;;;;30.08;14.95;;;589.70;2432.00;;;;;;5022763;28;20040;-84
2021/06/24 04:37:38;;;;;;;33.63;14.80;;;614.70;2432.00;;;;;;5023499;28;20032;-83
2021/06/24 04:40:06;;;;;;;37.40;14.20;;;614.50;2432.00;;;;;;5022117;28;20465;-84
2021/06/24 04:42:32;;;;;;;44.35;16.65;;;614.60;2432.00;;;;;;5019714;28;20014;-83
2021/06/24 04:44:58;;;;;;;36.42;15.38;;;614.60;2432.00;;;;;;5019996;28;20036;-83
2021/06/24 04:47:23;;;;;;;37.95;15.23;;;614.50;2432.00;;;;;;5018541;28;20449;-84
2021/06/24 04:49:49;;;;;;;37.42;16.67;;;614.50;2432.00;;;;;;5019284;28;20048;-84
2021/06/24 04:52:16;;;;;;;37.30;16.20;;;614.60;2432.00;;;;;;5019490;28;20025;-83
2021/06/24 04:54:42;;;;;;;39.95;18.90;;;614.60;2432.00;;;;;;5019080;28;20036;-84
2021/06/24 04:57:08;;;;;;;43.50;20.48;;;614.70;2432.00;;;;;;5019407;28;20021;-84
2021/06/24 04:59:34;;;;;;;33.55;16.83;;;614.90;2432.00;;;;;;5019143;28;20476;-85
2021/06/24 05:02:00;;;;;;;34.40;14.57;;;614.70;2432.00;;;;;;5018931;28;20029;-82
2021/06/24 05:04:26;;;;;;;41.67;15.52;;;614.70;2432.00;;;;;;5015485;28;20053;-84
2021/06/24 05:06:55;;;;;;;29.02;15.32;;;614.70;2432.00;;;;;;5015913;28;20026;-84
2021/06/24 05:09:30;;;;;;;35.63;14.40;;;614.90;2432.00;;;;;;5015694;28;20017;-84
2021/06/24 05:11:56;;;;;;;33.47;15.25;;;614.90;2432.00;;;;;;5015888;28;20052;-85
2021/06/24 05:14:22;;;;;;;29.63;14.98;;;615.10;2432.00;;;;;;5015299;28;20454;-84
2021/06/24 05:16:48;;;;;;;30.52;15.43;;;615.00;2432.00;;;;;;5015488;28;20473;-84
2021/06/24 05:19:14;;;;;;;38.95;15.23;;;615.00;2432.00;;;;;;5015309;28;20019;-84
2021/06/24 05:21:41;;;;;;;34.30;14.13;;;615.00;2432.00;;;;;;5015150;28;20080;-84
2021/06/24 05:24:08;;;;;;;29.13;14.25;;;615.10;2432.00;;;;;;5015501;28;20034;-84
2021/06/24 05:26:35;;;;;;;34.60;14.50;;;615.10;2432.00;;;;;;5015381;28;20029;-83
2021/06/24 05:29:01;;;;;;;30.63;15.88;;;640.90;2432.00;;;;;;5015004;28;20030;-84
2021/06/24 05:31:27;;;;;;;38.25;17.05;;;615.20;2432.00;;;;;;5015125;28;20104;-84
2021/06/24 05:33:52;;;;;;;31.80;15.15;;;615.30;2432.00;;;;;;5015137;28;20037;-84
2021/06/24 05:36:18;;;;;;;34.67;15.38;;;615.30;2432.00;;;;;;5014861;28;20026;-85
2021/06/24 05:38:44;;;;;;;36.30;16.45;;;615.20;2432.00;;;;;;5015218;28;20029;-83
2021/06/24 05:41:10;;;;;;;34.78;16.30;;;615.30;2432.00;;;;;;5015038;28;20049;-83
2021/06/24 05:43:36;;;;;;;34.67;15.02;;;640.00;2432.00;;;;;;5014331;28;20454;-84
2021/06/24 05:46:02;;;;;;;33.50;14.35;;;640.00;2432.00;;;;;;5014186;28;20417;-83
2021/06/24 05:48:28;;;;;;;25.33;13.02;;;640.10;2432.00;;;;;;5014748;28;20480;-83
2021/06/24 05:50:53;;;;;;;33.10;14.32;;;640.20;2432.00;;;;;;5014587;28;20072;-84
2021/06/24 05:53:19;;;;;;;37.13;14.43;;;640.40;2432.00;;;;;;5014819;28;20021;-84
2021/06/24 05:55:49;;;;;;;29.88;13.30;;;640.50;2432.00;;;;;;5015016;28;20018;-84
2021/06/24 05:58:18;;;;;;;35.70;14.27;;;640.50;2432.00;;;;;;5014354;28;20457;-84
2021/06/24 06:00:45;;;;;;;38.53;16.00;;;640.60;2432.00;;;;;;5014667;28;20026;-84
2021/06/24 06:03:11;;;;;;;36.60;15.75;;;640.70;2432.00;;;;;;5014694;28;20098;-84
2021/06/24 06:05:38;;;;;;;41.25;19.98;;;640.70;2432.00;;;;;;5017701;28;20018;-84
2021/06/24 06:08:07;;;;;;;39.20;25.23;;;640.90;2432.00;;;;;;5017615;28;20051;-84
2021/06/24 06:10:35;;;;;;;41.42;22.08;;;640.90;2432.00;;;;;;5016988;28;20022;-85
2021/06/24 06:13:02;;;;;;;38.42;17.13;;;640.90;2432.00;;;;;;5017650;28;20022;-84
2021/06/24 06:15:28;;;;;;;33.20;16.52;;;665.60;2432.00;;;;;;5017456;28;20087;-84
2021/06/24 06:17:57;;;;;;;32.67;15.80;;;665.60;2432.00;;;;;;5017814;28;20108;-84
2021/06/24 06:20:25;;;;;;;27.98;13.25;;;665.80;2432.00;;;;;;5017853;28;20043;-84
2021/06/24 06:23:13;;;;;;;32.33;12.98;;;665.90;2432.00;;;;;;5017303;28;20484;-84
2021/06/24 06:25:38;;;;;;;36.33;15.82;;;666.00;2432.00;;;;;;5016293;28;20500;-80
2021/06/24 06:28:04;;;;;;;39.47;16.00;;;666.00;2432.00;;;;;;5016322;28;20014;-80
2021/06/24 06:30:30;;;;;;;36.25;14.10;;;666.10;2432.00;;;;;;5016690;28;20022;-80
2021/06/24 06:32:56;;;;;;;47.20;15.27;;;666.10;2432.00;;;;;;5016376;28;20029;-80
2021/06/24 06:35:22;;;;;;;34.78;14.45;;;666.20;2432.00;;;;;;5016875;28;20047;-81
2021/06/24 06:37:48;;;;;;;31.42;14.73;;;666.20;2432.00;;;;;;5017027;28;20025;-82
2021/06/24 06:40:14;;;;;;;40.90;16.60;;;666.30;2432.00;;;;;;5016848;28;20048;-82
2021/06/24 06:42:41;;;;;;;34.83;17.77;;;666.40;2432.00;;;;;;5016766;28;20364;-82
2021/06/24 06:45:08;;;;;;;36.65;18.90;;;666.50;2432.00;;;;;;5016817;28;20369;-83
2021/06/24 06:47:34;;;;;;;41.00;20.10;;;691.20;2432.00;;;;;;5016789;28;20025;-84
2021/06/24 06:50:00;;;;;;;41.85;16.73;;;691.30;2432.00;;;;;;5016391;28;20079;-79
2021/06/24 06:52:25;;;;;;;39.72;15.93;;;691.40;2432.00;;;;;;5015985;28;20026;-81
2021/06/24 06:54:51;;;;;;;34.63;14.32;;;691.40;2432.00;;;;;;5016212;28;20025;-83
2021/06/24 06:57:17;;;;;;;35.25;15.27;;;691.50;2432.00;;;;;;5016826;28;20138;-82
2021/06/24 06:59:43;;;;;;;29.52;14.10;;;691.70;2432.00;;;;;;5015882;28;20021;-79
2021/06/24 07:02:09;;;;;;;40.47;14.05;;;691.90;2432.00;;;;;;5033809;28;20017;-81
2021/06/24 07:04:36;;;;;;;36.75;14.43;;;691.80;2432.00;;;;;;5016087;28;20048;-80
2021/06/24 07:07:02;;;;;;;45.03;14.48;;;692.10;2432.00;;;;;;5016360;28;20018;-80
2021/06/24 07:09:28;;;;;;;32.70;14.20;;;716.90;2432.00;;;;;;5015714;28;20025;-81
2021/06/24 07:11:54;;;;;;;36.42;13.32;;;716.90;2432.00;;;;;;5016397;28;20120;-82
2021/06/24 07:14:21;;;;;;;36.00;14.68;;;716.90;2432.00;;;;;;5016178;28;20120;-80
2021/06/24 07:16:48;;;;;;;35.10;14.32;;;716.90;2432.00;;;;;;5017876;28;20052;-83
2021/06/24 07:19:13;;;;;;;30.30;13.48;;;717.10;2432.00;;;;;;5017107;28;20105;-82
2021/06/24 07:21:39;;;;;;;33.25;14.00;;;717.20;2432.00;;;;;;5016023;28;20053;-82
2021/06/24 07:24:06;;;;;;;40.53;14.90;;;717.30;2432.00;;;;;;5015335;28;20048;-82
2021/06/24 07:26:32;;;;;;;35.47;14.50;;;717.20;2432.00;;;;;;5033165;28;20060;-83
2021/06/24 07:28:58;;;;;;;29.20;13.25;;;717.30;2432.00;;;;;;5016801;28;20017;-82
2021/06/24 07:31:24;;;;;;;35.15;15.20;;;717.40;2432.00;;;;;;5016406;28;20458;-82
2021/06/24 07:33:50;;;;;;;33.75;14.75;;;717.70;2432.00;;;;;;5016462;28;20025;-82
2021/06/24 07:36:16;;;;;;;41.63;14.93;;;742.50;2432.00;;;;;;5016663;28;20030;-83
2021/06/24 07:38:42;;;;;;;41.10;14.30;;;742.50;2432.00;;;;;;5016546;28;20026;-83
2021/06/24 07:41:08;;;;;;;28.58;13.15;;;742.60;2432.00;;;;;;5016373;28;20059;-83
2021/06/24 07:43:34;;;;;;;39.92;14.50;;;742.50;2432.00;;;;;;5016806;28;20021;-83
2021/06/24 07:46:00;;;;;;;33.10;15.05;;;742.70;2432.00;;;;;;5016748;28;20342;-83
2021/06/24 07:48:26;;;;;;;34.60;14.98;;;742.70;2432.00;;;;;;5016516;28;20033;-83
2021/06/24 07:50:51;;;;;;;43.85;15.05;;;742.90;2432.00;;;;;;4999638;28;20465;-83
2021/06/24 07:53:17;;;;;;;35.88;13.52;;;743.20;2432.00;;;;;;5016328;28;20028;-83
2021/06/24 07:55:43;;;;;;;37.65;14.25;;;743.30;2432.00;;;;;;5016203;28;20445;-83
2021/06/24 07:58:09;;;;;;;26.33;13.13;;;768.00;2432.00;;;;;;5017862;28;20021;-82
2021/06/24 08:00:36;;;;;;;34.28;13.98;;;768.00;2432.00;;;;;;5019694;28;20056;-82
2021/06/24 08:03:03;;;;;;;39.95;13.93;;;768.00;2432.00;;;;;;5017970;28;20024;-83
2021/06/24 08:05:29;;;;;;;30.08;13.93;;;768.10;2432.00;;;;;;5015967;28;20080;-83
2021/06/24 08:07:55;;;;;;;33.63;13.98;;;768.10;2432.00;;;;;;5016152;28;20109;-82
2021/06/24 08:10:22;;;;;;;33.03;15.57;;;768.40;2432.00;;;;;;5015502;28;20022;-83
2021/06/24 08:12:48;;;;;;;34.40;14.95;;;768.60;2432.00;;;;;;5016031;28;20056;-82
2021/06/24 08:15:18;;;;;;;32.63;15.27;;;793.60;2432.00;;;;;;5016098;28;20036;-83
2021/06/24 08:17:45;;;;;;;29.23;12.75;;;768.90;2432.00;;;;;;5015630;28;20022;-83
2021/06/24 08:20:12;;;;;;;35.78;13.23;;;768.90;2432.00;;;;;;5016180;28;20067;-83
2021/06/24 08:22:39;;;;;;;42.30;17.05;;;793.70;2432.00;;;;;;5019849;28;20017;-83
2021/06/24 08:25:06;;;;;;;37.17;16.38;;;794.20;2432.00;;;;;;5019245;28;20021;-83
2021/06/24 08:27:35;;;;;;;31.45;13.70;;;794.40;2432.00;;;;;;5019483;28;20163;-83
2021/06/24 08:30:03;;;;;;;41.58;15.02;;;794.50;2432.00;;;;;;5019110;28;20052;-83
2021/06/24 08:32:29;;;;;;;33.83;13.80;;;819.30;2432.00;;;;;;5019825;28;20017;-83
2021/06/24 08:34:55;;;;;;;27.05;13.10;;;794.50;2432.00;;;;;;5020010;28;20346;-83
2021/06/24 08:37:21;;;;;;;31.65;13.95;;;819.30;2432.00;;;;;;5020473;28;20021;-84
2021/06/24 08:39:49;;;;;;;37.75;13.88;;;819.30;2432.00;;;;;;5019653;28;20025;-85
2021/06/24 08:42:47;;;;;;;34.92;13.23;;;819.60;2432.00;;;;;;5020280;28;20063;-84
2021/06/24 08:45:13;;;;;;;30.13;12.80;;;819.40;2432.00;;;;;;5019440;28;20057;-85
2021/06/24 08:47:48;;;;;;;34.90;13.45;;;819.80;2432.00;;;;;;5020105;28;20053;-84
2021/06/24 08:50:27;;;;;;;34.78;14.43;;;819.90;2432.00;;;;;;5019574;28;20087;-84
2021/06/24 08:52:54;;;;;;;32.70;14.30;;;844.80;2432.00;;;;;;5019148;28;20026;-84
2021/06/24 08:55:36;;;;;;;32.50;12.38;;;845.00;2432.00;;;;;;5018849;28;20032;-84
2021/06/24 08:58:08;;;;;;;34.28;13.15;;;845.10;2432.00;;;;;;5018717;28;20357;-83
2021/06/24 09:01:36;;;;;;;33.85;15.15;;;845.20;2432.00;;;;;;5018831;28;20112;-84
2021/06/24 09:04:16;;;;;;;32.72;12.32;;;845.20;2432.00;;;;;;4939950;29;20126;-83
2021/06/24 09:06:51;;;;;;;40.35;12.63;;;845.40;2432.00;;;;;;4940433;29;20372;-83
2021/06/24 09:09:28;;;;;;;32.85;12.93;;;845.30;2432.00;;;;;;4989378;28;20488;-84
2021/06/24 09:12:08;;;;;;;34.60;12.02;;;845.60;2432.00;;;;;;5018554;28;20105;-84
2021/06/24 09:14:53;;;;;;;39.05;13.10;;;845.40;2432.00;;;;;;5018798;28;20037;-84
2021/06/24 09:17:34;;;;;;;34.10;13.50;;;845.50;2432.00;;;;;;5018359;28;20049;-84
2021/06/24 09:20:00;;;;;;;35.97;12.83;;;845.70;2432.00;;;;;;5018177;28;20104;-84
2021/06/24 09:22:27;;;;;;;30.13;11.85;;;870.50;2432.00;;;;;;5018201;28;20029;-84
2021/06/24 09:25:21;;;;;;;35.65;12.65;;;870.50;2432.00;;;;;;5018209;28;20056;-84
2021/06/24 09:27:52;;;;;;;31.05;13.57;;;870.70;2432.00;;;;;;5018087;28;20022;-85
2021/06/24 09:30:50;;;;;;;36.33;12.93;;;870.90;2432.00;;;;;;5018503;28;20021;-85
2021/06/24 09:33:18;;;;;;;31.08;10.95;;;870.90;2406.40;;;;;;5017518;28;20051;-84
2021/06/24 09:35:55;;;;;;;29.50;10.65;;;870.90;2355.20;;;;;;5018003;28;20029;-84
2021/06/24 09:38:21;;;;;;;37.00;12.20;;;870.50;2380.80;;;;;;5018344;28;20048;-84
2021/06/24 09:44:24;;;;;;;33.58;11.05;;;871.00;2406.40;;;;;;4955744;29;20506;-83
2021/06/24 09:47:27;;;;;;;41.70;12.45;;;870.90;2355.20;;;;;;4939168;29;20554;-84
2021/06/24 09:49:57;;;;;;;33.83;12.35;;;871.00;2380.80;;;;;;5015508;28;20159;-84
2021/06/24 09:52:23;;;;;;;29.75;11.05;;;871.00;2406.40;;;;;;5017893;28;20021;-84
2021/06/24 09:54:51;;;;;;;33.38;11.32;;;870.90;2380.80;;;;;;5017819;28;20029;-84
2021/06/24 09:57:24;;;;;;;31.40;11.30;;;871.00;2355.20;;;;;;5017972;28;20022;-84
2021/06/24 09:59:51;;;;;;;25.73;10.45;;;871.10;2355.20;;;;;;5018032;28;20351;-83
2021/06/24 10:02:19;;;;;;;34.85;11.52;;;871.00;2329.60;;;;;;5017803;28;20018;-84
2021/06/24 10:04:49;;;;;;;37.88;13.50;;;871.30;2329.60;;;;;;5017511;28;20049;-84
2021/06/24 10:07:21;;;;;;;29.67;10.20;;;896.20;2304.00;;;;;;5035882;28;20216;-84
2021/06/24 10:09:47;;;;;;;30.42;10.77;;;896.60;2278.40;;;;;;5017726;28;20083;-84
2021/06/24 10:12:19;;;;;;;26.20;11.30;;;870.60;2252.80;;;;;;5017726;28;20029;-83
2021/06/24 10:14:46;;;;;;;37.08;12.00;;;871.30;2252.80;;;;;;5017510;28;20025;-83
2021/06/24 10:17:12;;;;;;;34.30;11.45;;;871.10;2227.20;;;;;;5017475;28;20067;-84
2021/06/24 10:19:44;;;;;;;28.00;10.27;;;896.20;2201.60;;;;;;5017305;28;20116;-83
2021/06/24 10:22:13;;;;;;;36.20;10.63;;;896.70;2176.00;;;;;;5017102;28;20190;-83
2021/06/24 10:24:46;;;;;;;38.58;11.40;;;921.60;2176.00;;;;;;5017270;28;20025;-84
2021/06/24 10:27:15;;;;;;;34.45;10.90;;;896.90;2124.80;;;;;;5017414;28;20079;-84
2021/06/24 10:29:50;;;;;;;33.60;11.35;;;896.80;2124.80;;;;;;5018604;28;20025;-83
2021/06/24 10:32:32;;;;;;;31.33;10.48;;;896.70;2099.20;;;;;;5017617;28;20083;-84
2021/06/24 10:35:00;;;;;;;30.15;10.30;;;896.90;2099.20;;;;;;5017739;28;20469;-84
2021/06/24 10:37:28;;;;;;;32.35;10.45;;;921.90;2124.80;;;;;;5017719;28;20512;-84
2021/06/24 10:39:57;;;;;;;33.75;11.07;;;921.60;2099.20;;;;;;5021763;28;20465;-84
2021/06/24 10:42:25;;;;;;;36.33;13.20;;;921.90;2176.00;;;;;;5020719;28;20052;-84
2021/06/24 10:44:54;;;;;;;34.55;13.07;;;922.00;2150.40;;;;;;5020890;28;20021;-84
2021/06/24 10:47:37;;;;;;;34.28;10.70;;;922.10;2073.60;;;;;;5024281;28;20112;-84
2021/06/24 10:50:29;;;;;;;27.60;10.32;;;922.20;2048.00;;;;;;5027447;28;20022;-84
2021/06/24 10:53:15;;;;;;;33.28;10.73;;;922.10;2022.40;;;;;;5023018;28;20049;-85
2021/06/24 10:55:57;;;;;;;;;;;;;;;;;;;;;
2021/06/24 10:58:28;;;;;;;31.23;10.90;;;922.00;2022.40;;;;;;5035877;28;20035;-84
2021/06/24 11:00:57;;;;;;;27.50;10.68;;;922.10;2073.60;;;;;;5023723;28;20449;-84
2021/06/24 11:03:41;;;;;;;29.13;10.23;;;922.30;2022.40;;;;;;5029371;28;20520;-84
2021/06/24 11:06:20;;;;;;;34.15;10.98;;;947.30;1945.60;;;;;;5029408;28;20132;-84
2021/06/24 11:08:46;;;;;;;33.17;11.32;;;947.40;1945.60;;;;;;5024908;28;20500;-84
2021/06/24 11:11:14;;;;;;;40.40;11.13;;;947.70;1971.20;;;;;;5025234;28;20017;-85
2021/06/24 11:16:20;;;;;;;33.60;10.32;;;947.70;1868.80;;;;;;5040157;28;20018;-84
2021/06/24 11:18:52;;;;;;;28.85;10.05;;;947.70;1868.80;;;;;;5019462;28;20167;-84
2021/06/24 11:21:41;;;;;;;33.22;9.45;;;947.40;1868.80;;;;;;5018976;28;20025;-83
2021/06/24 11:24:07;;;;;;;32.70;12.27;;;947.70;1894.40;;;;;;5021413;28;20021;-84
2021/06/24 11:26:35;;;;;;;35.42;9.40;;;947.90;1920.00;;;;;;5021867;28;20080;-84
2021/06/24 11:29:32;;;;;;;27.67;9.07;;;948.00;1817.60;;;;;;5022410;28;20060;-85
2021/06/24 11:32:19;;;;;;;30.83;10.32;;;972.90;1843.20;;;;;;5024010;28;20021;-85
2021/06/24 11:34:52;;;;;;;31.15;9.95;;;972.80;1792.00;;;;;;5023539;28;20032;-84
2021/06/24 11:37:23;;;;;;;34.08;10.43;;;948.10;1766.40;;;;;;5026459;28;20021;-84
2021/06/24 11:39:54;;;;;;;31.60;8.98;;;972.90;1766.40;;;;;;5021946;28;20080;-84
2021/06/24 11:42:26;;;;;;;25.48;8.00;;;972.90;1715.20;;;;;;5027288;28;20013;-84
2021/06/24 11:44:53;;;;;;;34.38;10.75;;;972.80;1766.40;;;;;;5024306;28;20044;-84
2021/06/24 11:47:33;;;;;;;33.20;9.32;;;972.90;1766.40;;;;;;5019285;28;20116;-83
2021/06/24 12:04:58;;;;;;;30.20;9.45;;;973.20;1664.00;;;;;;4994375;28;20036;-82
2021/06/24 12:07:24;;;;;;;27.92;8.70;;;973.20;1664.00;;;;;;5039419;28;20025;-82
2021/06/24 12:09:51;;;;;;;28.35;9.38;;;973.20;1689.60;;;;;;5041984;28;20025;-83
2021/06/24 12:12:26;;;;;;;34.20;8.77;;;973.40;1638.40;;;;;;5039310;28;20022;-83
2021/06/24 12:14:55;;;;;;;26.48;9.02;;;973.50;1638.40;;;;;;5043000;28;20025;-82
2021/06/24 12:17:29;;;;;;;45.13;10.40;;;973.50;1638.40;;;;;;5044117;28;20010;-84
2021/06/24 12:20:12;;;;;;;25.90;9.50;;;998.40;1689.60;;;;;;5043244;28;20101;-83
2021/06/24 12:22:44;;;;;;;27.75;9.20;;;998.50;1740.80;;;;;;5042438;28;20040;-84
2021/06/24 12:25:22;;;;;;;24.23;8.70;;;998.40;1638.40;;;;;;5039297;28;20017;-84
2021/06/24 12:27:51;;;;;;;30.95;10.35;;;998.50;1638.40;;;;;;5042510;28;20014;-84
2021/06/24 12:30:42;;;;;;;35.58;8.90;;;998.80;1664.00;;;;;;5041478;28;20032;-83